sensor_id;sensor_type;location;lat;lon;timestamp;P1;durP1;ratioP1;P2;durP2;ratioP2
27223;SDS011;14965;50.660;13.226;2024-02-04T00:00:53;1.65;;;1.30;;
27223;SDS011;14965;50.660;13.226;2024-02-04T00:03:18;2.55;;;1.58;;
27223;SDS011;14965;50.660;13.226;2024-02-04T00:05:44;1.98;;;1.77;;
27223;SDS011;14965;50.660;13.226;2024-02-04T00:08:11;2.58;;;1.38;;
27223;SDS011;14965;50.660;13.226;2024-02-04T00:10:37;1.90;;;1.70;;
27223;SDS011;14965;50.660;13.226;2024-02-04T00:13:04;2.10;;;1.90;;
27223;SDS011;14965;50.660;13.226;2024-02-04T00:15:30;3.22;;;1.50;;
27223;SDS011;14965;50.660;13.226;2024-02-04T00:17:56;1.70;;;1.60;;
27223;SDS011;14965;50.660;13.226;2024-02-04T00:20:22;2.00;;;1.42;;
27223;SDS011;14965;50.660;13.226;2024-02-04T00:22:48;1.90;;;1.70;;
27223;SDS011;14965;50.660;13.226;2024-02-04T00:25:13;2.00;;;1.80;;
27223;SDS011;14965;50.660;13.226;2024-02-04T00:27:39;1.48;;;1.38;;
27223;SDS011;14965;50.660;13.226;2024-02-04T00:30:07;2.08;;;1.50;;
27223;SDS011;14965;50.660;13.226;2024-02-04T00:32:34;1.65;;;1.50;;
27223;SDS011;14965;50.660;13.226;2024-02-04T00:34:59;3.53;;;1.90;;
27223;SDS011;14965;50.660;13.226;2024-02-04T00:37:25;1.63;;;1.50;;
27223;SDS011;14965;50.660;13.226;2024-02-04T00:39:51;2.60;;;1.60;;
27223;SDS011;14965;50.660;13.226;2024-02-04T00:42:17;2.85;;;1.60;;
27223;SDS011;14965;50.660;13.226;2024-02-04T00:44:43;2.00;;;1.40;;
27223;SDS011;14965;50.660;13.226;2024-02-04T00:47:11;2.03;;;1.38;;
27223;SDS011;14965;50.660;13.226;2024-02-04T00:49:36;1.30;;;1.20;;
27223;SDS011;14965;50.660;13.226;2024-02-04T00:52:02;2.90;;;1.50;;
27223;SDS011;14965;50.660;13.226;2024-02-04T00:54:29;2.10;;;1.40;;
27223;SDS011;14965;50.660;13.226;2024-02-04T00:56:55;3.25;;;2.00;;
27223;SDS011;14965;50.660;13.226;2024-02-04T00:59:21;2.53;;;2.05;;
27223;SDS011;14965;50.660;13.226;2024-02-04T01:01:47;5.53;;;3.30;;
27223;SDS011;14965;50.660;13.226;2024-02-04T01:04:14;7.88;;;3.70;;
27223;SDS011;14965;50.660;13.226;2024-02-04T01:06:40;6.55;;;3.90;;
27223;SDS011;14965;50.660;13.226;2024-02-04T01:09:06;7.80;;;4.53;;
27223;SDS011;14965;50.660;13.226;2024-02-04T01:11:32;8.43;;;4.00;;
27223;SDS011;14965;50.660;13.226;2024-02-04T01:13:59;7.07;;;4.18;;
27223;SDS011;14965;50.660;13.226;2024-02-04T01:16:25;7.05;;;4.65;;
27223;SDS011;14965;50.660;13.226;2024-02-04T01:18:50;6.80;;;4.50;;
27223;SDS011;14965;50.660;13.226;2024-02-04T01:21:18;7.22;;;4.22;;
27223;SDS011;14965;50.660;13.226;2024-02-04T01:23:44;6.45;;;4.22;;
27223;SDS011;14965;50.660;13.226;2024-02-04T01:26:10;7.43;;;5.10;;
27223;SDS011;14965;50.660;13.226;2024-02-04T01:28:36;8.88;;;4.70;;
27223;SDS011;14965;50.660;13.226;2024-02-04T01:31:02;7.22;;;4.55;;
27223;SDS011;14965;50.660;13.226;2024-02-04T01:33:28;8.23;;;4.30;;
27223;SDS011;14965;50.660;13.226;2024-02-04T01:35:53;7.18;;;5.13;;
27223;SDS011;14965;50.660;13.226;2024-02-04T01:38:21;9.20;;;4.90;;
27223;SDS011;14965;50.660;13.226;2024-02-04T01:40:46;9.48;;;5.55;;
27223;SDS011;14965;50.660;13.226;2024-02-04T01:43:12;9.05;;;5.60;;
27223;SDS011;14965;50.660;13.226;2024-02-04T01:45:38;8.52;;;5.45;;
27223;SDS011;14965;50.660;13.226;2024-02-04T01:48:05;8.05;;;5.25;;
27223;SDS011;14965;50.660;13.226;2024-02-04T01:50:32;9.38;;;5.55;;
27223;SDS011;14965;50.660;13.226;2024-02-04T01:52:58;8.18;;;5.03;;
27223;SDS011;14965;50.660;13.226;2024-02-04T01:55:26;7.32;;;4.90;;
27223;SDS011;14965;50.660;13.226;2024-02-04T01:57:52;7.90;;;5.15;;
27223;SDS011;14965;50.660;13.226;2024-02-04T02:00:18;10.40;;;5.20;;
27223;SDS011;14965;50.660;13.226;2024-02-04T02:02:44;8.18;;;5.15;;
27223;SDS011;14965;50.660;13.226;2024-02-04T02:05:12;11.10;;;5.20;;
27223;SDS011;14965;50.660;13.226;2024-02-04T02:07:37;9.32;;;5.45;;
27223;SDS011;14965;50.660;13.226;2024-02-04T02:10:05;9.23;;;5.28;;
27223;SDS011;14965;50.660;13.226;2024-02-04T02:12:35;7.38;;;5.10;;
27223;SDS011;14965;50.660;13.226;2024-02-04T02:15:11;10.60;;;4.97;;
27223;SDS011;14965;50.660;13.226;2024-02-04T02:17:42;9.00;;;4.63;;
27223;SDS011;14965;50.660;13.226;2024-02-04T02:20:17;8.40;;;5.18;;
27223;SDS011;14965;50.660;13.226;2024-02-04T02:22:52;9.15;;;5.38;;
27223;SDS011;14965;50.660;13.226;2024-02-04T02:25:29;9.07;;;5.22;;
27223;SDS011;14965;50.660;13.226;2024-02-04T02:27:57;12.32;;;6.35;;
27223;SDS011;14965;50.660;13.226;2024-02-04T02:30:23;10.05;;;6.32;;
27223;SDS011;14965;50.660;13.226;2024-02-04T02:32:49;10.07;;;5.72;;
27223;SDS011;14965;50.660;13.226;2024-02-04T02:35:16;11.77;;;5.80;;
27223;SDS011;14965;50.660;13.226;2024-02-04T02:37:43;10.52;;;5.72;;
27223;SDS011;14965;50.660;13.226;2024-02-04T02:40:20;11.07;;;5.68;;
27223;SDS011;14965;50.660;13.226;2024-02-04T02:42:55;8.77;;;5.22;;
27223;SDS011;14965;50.660;13.226;2024-02-04T02:45:27;11.77;;;5.22;;
27223;SDS011;14965;50.660;13.226;2024-02-04T02:47:53;10.77;;;5.60;;
27223;SDS011;14965;50.660;13.226;2024-02-04T02:50:20;7.68;;;4.75;;
27223;SDS011;14965;50.660;13.226;2024-02-04T02:52:47;10.43;;;5.47;;
27223;SDS011;14965;50.660;13.226;2024-02-04T02:55:13;8.15;;;4.82;;
27223;SDS011;14965;50.660;13.226;2024-02-04T02:57:39;8.68;;;4.82;;
27223;SDS011;14965;50.660;13.226;2024-02-04T03:00:07;7.95;;;5.00;;
27223;SDS011;14965;50.660;13.226;2024-02-04T03:02:33;10.45;;;4.68;;
27223;SDS011;14965;50.660;13.226;2024-02-04T03:04:59;8.43;;;4.97;;
27223;SDS011;14965;50.660;13.226;2024-02-04T03:07:25;8.07;;;4.75;;
27223;SDS011;14965;50.660;13.226;2024-02-04T03:09:52;7.38;;;3.95;;
27223;SDS011;14965;50.660;13.226;2024-02-04T03:12:18;7.88;;;3.90;;
27223;SDS011;14965;50.660;13.226;2024-02-04T03:14:44;7.32;;;3.83;;
27223;SDS011;14965;50.660;13.226;2024-02-04T03:17:11;7.22;;;3.53;;
27223;SDS011;14965;50.660;13.226;2024-02-04T03:19:37;5.85;;;3.72;;
27223;SDS011;14965;50.660;13.226;2024-02-04T03:22:03;5.80;;;3.30;;
27223;SDS011;14965;50.660;13.226;2024-02-04T03:24:29;4.95;;;3.10;;
27223;SDS011;14965;50.660;13.226;2024-02-04T03:26:55;5.43;;;3.20;;
27223;SDS011;14965;50.660;13.226;2024-02-04T03:29:21;5.72;;;3.10;;
27223;SDS011;14965;50.660;13.226;2024-02-04T03:31:47;5.65;;;3.03;;
27223;SDS011;14965;50.660;13.226;2024-02-04T03:34:15;4.25;;;2.78;;
27223;SDS011;14965;50.660;13.226;2024-02-04T03:36:40;4.10;;;2.90;;
27223;SDS011;14965;50.660;13.226;2024-02-04T03:39:06;3.92;;;2.55;;
27223;SDS011;14965;50.660;13.226;2024-02-04T03:41:32;4.47;;;2.78;;
27223;SDS011;14965;50.660;13.226;2024-02-04T03:43:58;5.03;;;2.97;;
27223;SDS011;14965;50.660;13.226;2024-02-04T03:46:24;3.47;;;2.40;;
27223;SDS011;14965;50.660;13.226;2024-02-04T03:48:50;3.13;;;2.28;;
27223;SDS011;14965;50.660;13.226;2024-02-04T03:51:17;3.28;;;2.10;;
27223;SDS011;14965;50.660;13.226;2024-02-04T03:53:44;2.88;;;1.70;;
27223;SDS011;14965;50.660;13.226;2024-02-04T03:56:10;3.13;;;1.80;;
27223;SDS011;14965;50.660;13.226;2024-02-04T03:58:36;2.22;;;1.67;;
27223;SDS011;14965;50.660;13.226;2024-02-04T04:01:02;2.72;;;1.75;;
27223;SDS011;14965;50.660;13.226;2024-02-04T04:03:28;2.85;;;1.70;;
27223;SDS011;14965;50.660;13.226;2024-02-04T04:05:54;2.65;;;1.50;;
27223;SDS011;14965;50.660;13.226;2024-02-04T04:08:21;4.15;;;1.85;;
27223;SDS011;14965;50.660;13.226;2024-02-04T04:10:47;2.38;;;1.88;;
27223;SDS011;14965;50.660;13.226;2024-02-04T04:13:13;2.88;;;2.00;;
27223;SDS011;14965;50.660;13.226;2024-02-04T04:15:39;3.28;;;2.60;;
27223;SDS011;14965;50.660;13.226;2024-02-04T04:18:05;2.55;;;2.13;;
27223;SDS011;14965;50.660;13.226;2024-02-04T04:20:31;3.83;;;2.60;;
27223;SDS011;14965;50.660;13.226;2024-02-04T04:22:57;6.07;;;3.15;;
27223;SDS011;14965;50.660;13.226;2024-02-04T04:25:25;5.32;;;2.92;;
27223;SDS011;14965;50.660;13.226;2024-02-04T04:27:51;4.78;;;2.78;;
27223;SDS011;14965;50.660;13.226;2024-02-04T04:30:16;4.30;;;3.33;;
27223;SDS011;14965;50.660;13.226;2024-02-04T04:32:42;4.82;;;3.03;;
27223;SDS011;14965;50.660;13.226;2024-02-04T04:35:08;5.25;;;3.20;;
27223;SDS011;14965;50.660;13.226;2024-02-04T04:37:34;6.25;;;3.80;;
27223;SDS011;14965;50.660;13.226;2024-02-04T04:40:00;5.65;;;3.80;;
27223;SDS011;14965;50.660;13.226;2024-02-04T04:42:27;7.18;;;4.18;;
27223;SDS011;14965;50.660;13.226;2024-02-04T04:44:55;7.00;;;3.85;;
27223;SDS011;14965;50.660;13.226;2024-02-04T04:47:20;5.05;;;3.28;;
27223;SDS011;14965;50.660;13.226;2024-02-04T04:49:46;4.47;;;3.20;;
27223;SDS011;14965;50.660;13.226;2024-02-04T04:52:12;5.22;;;3.63;;
27223;SDS011;14965;50.660;13.226;2024-02-04T04:54:38;6.97;;;3.80;;
27223;SDS011;14965;50.660;13.226;2024-02-04T04:57:04;6.68;;;4.28;;
27223;SDS011;14965;50.660;13.226;2024-02-04T04:59:32;6.13;;;4.20;;
27223;SDS011;14965;50.660;13.226;2024-02-04T05:01:58;7.47;;;4.38;;
27223;SDS011;14965;50.660;13.226;2024-02-04T05:04:23;6.82;;;4.18;;
27223;SDS011;14965;50.660;13.226;2024-02-04T05:06:49;5.68;;;3.85;;
27223;SDS011;14965;50.660;13.226;2024-02-04T05:09:15;7.40;;;4.50;;
27223;SDS011;14965;50.660;13.226;2024-02-04T05:11:41;6.80;;;4.13;;
27223;SDS011;14965;50.660;13.226;2024-02-04T05:14:07;7.85;;;3.95;;
27223;SDS011;14965;50.660;13.226;2024-02-04T05:16:35;6.63;;;4.57;;
27223;SDS011;14965;50.660;13.226;2024-02-04T05:19:04;5.63;;;3.75;;
27223;SDS011;14965;50.660;13.226;2024-02-04T05:21:30;8.32;;;4.55;;
27223;SDS011;14965;50.660;13.226;2024-02-04T05:23:55;8.15;;;4.72;;
27223;SDS011;14965;50.660;13.226;2024-02-04T05:26:23;5.85;;;3.90;;
27223;SDS011;14965;50.660;13.226;2024-02-04T05:28:48;7.97;;;4.55;;
27223;SDS011;14965;50.660;13.226;2024-02-04T05:31:14;7.60;;;5.05;;
27223;SDS011;14965;50.660;13.226;2024-02-04T05:33:42;7.75;;;4.65;;
27223;SDS011;14965;50.660;13.226;2024-02-04T05:36:08;9.90;;;5.18;;
27223;SDS011;14965;50.660;13.226;2024-02-04T05:38:34;10.02;;;5.63;;
27223;SDS011;14965;50.660;13.226;2024-02-04T05:40:59;10.40;;;5.20;;
27223;SDS011;14965;50.660;13.226;2024-02-04T05:43:25;7.28;;;5.13;;
27223;SDS011;14965;50.660;13.226;2024-02-04T05:45:52;12.00;;;5.60;;
27223;SDS011;14965;50.660;13.226;2024-02-04T05:48:18;10.48;;;5.85;;
27223;SDS011;14965;50.660;13.226;2024-02-04T05:50:45;9.45;;;4.90;;
27223;SDS011;14965;50.660;13.226;2024-02-04T05:53:11;6.32;;;4.20;;
27223;SDS011;14965;50.660;13.226;2024-02-04T05:55:37;8.73;;;5.50;;
27223;SDS011;14965;50.660;13.226;2024-02-04T05:58:04;7.20;;;4.63;;
27223;SDS011;14965;50.660;13.226;2024-02-04T06:00:30;5.93;;;4.15;;
27223;SDS011;14965;50.660;13.226;2024-02-04T06:02:56;6.57;;;3.40;;
27223;SDS011;14965;50.660;13.226;2024-02-04T06:05:22;6.55;;;4.20;;
27223;SDS011;14965;50.660;13.226;2024-02-04T06:07:49;4.63;;;3.55;;
27223;SDS011;14965;50.660;13.226;2024-02-04T06:10:15;3.92;;;3.05;;
27223;SDS011;14965;50.660;13.226;2024-02-04T06:12:41;3.92;;;3.20;;
27223;SDS011;14965;50.660;13.226;2024-02-04T06:15:11;4.60;;;4.20;;
27223;SDS011;14965;50.660;13.226;2024-02-04T06:17:38;4.22;;;3.80;;
27223;SDS011;14965;50.660;13.226;2024-02-04T06:20:04;3.20;;;2.28;;
27223;SDS011;14965;50.660;13.226;2024-02-04T06:22:32;2.25;;;1.80;;
27223;SDS011;14965;50.660;13.226;2024-02-04T06:25:00;2.47;;;2.13;;
27223;SDS011;14965;50.660;13.226;2024-02-04T06:27:26;2.92;;;2.13;;
27223;SDS011;14965;50.660;13.226;2024-02-04T06:29:52;1.80;;;1.67;;
27223;SDS011;14965;50.660;13.226;2024-02-04T06:32:18;2.13;;;1.77;;
27223;SDS011;14965;50.660;13.226;2024-02-04T06:34:44;3.90;;;2.70;;
27223;SDS011;14965;50.660;13.226;2024-02-04T06:37:10;2.45;;;2.25;;
27223;SDS011;14965;50.660;13.226;2024-02-04T06:39:36;2.78;;;1.60;;
27223;SDS011;14965;50.660;13.226;2024-02-04T06:42:04;1.67;;;1.40;;
27223;SDS011;14965;50.660;13.226;2024-02-04T06:44:30;2.45;;;1.23;;
27223;SDS011;14965;50.660;13.226;2024-02-04T06:46:56;1.20;;;1.10;;
27223;SDS011;14965;50.660;13.226;2024-02-04T06:49:22;1.60;;;1.00;;
27223;SDS011;14965;50.660;13.226;2024-02-04T06:51:48;1.00;;;0.90;;
27223;SDS011;14965;50.660;13.226;2024-02-04T06:54:15;1.20;;;1.10;;
27223;SDS011;14965;50.660;13.226;2024-02-04T06:56:41;1.45;;;1.10;;
27223;SDS011;14965;50.660;13.226;2024-02-04T06:59:08;1.23;;;1.10;;
27223;SDS011;14965;50.660;13.226;2024-02-04T07:01:34;1.40;;;1.30;;
27223;SDS011;14965;50.660;13.226;2024-02-04T07:04:00;1.20;;;1.10;;
27223;SDS011;14965;50.660;13.226;2024-02-04T07:06:26;1.52;;;1.00;;
27223;SDS011;14965;50.660;13.226;2024-02-04T07:08:52;1.30;;;1.20;;
27223;SDS011;14965;50.660;13.226;2024-02-04T07:11:18;1.35;;;1.00;;
27223;SDS011;14965;50.660;13.226;2024-02-04T07:13:44;2.25;;;1.40;;
27223;SDS011;14965;50.660;13.226;2024-02-04T07:16:11;1.30;;;1.20;;
27223;SDS011;14965;50.660;13.226;2024-02-04T07:18:37;2.30;;;1.50;;
27223;SDS011;14965;50.660;13.226;2024-02-04T07:21:03;1.73;;;1.40;;
27223;SDS011;14965;50.660;13.226;2024-02-04T07:23:30;1.20;;;1.10;;
27223;SDS011;14965;50.660;13.226;2024-02-04T07:25:56;2.10;;;1.60;;
27223;SDS011;14965;50.660;13.226;2024-02-04T07:28:22;1.63;;;1.27;;
27223;SDS011;14965;50.660;13.226;2024-02-04T07:30:47;2.33;;;1.20;;
27223;SDS011;14965;50.660;13.226;2024-02-04T07:33:15;1.35;;;1.20;;
27223;SDS011;14965;50.660;13.226;2024-02-04T07:35:40;1.05;;;0.95;;
27223;SDS011;14965;50.660;13.226;2024-02-04T07:38:06;1.58;;;1.20;;
27223;SDS011;14965;50.660;13.226;2024-02-04T07:40:32;1.83;;;1.05;;
27223;SDS011;14965;50.660;13.226;2024-02-04T07:42:58;1.27;;;1.02;;
27223;SDS011;14965;50.660;13.226;2024-02-04T07:45:24;1.15;;;1.00;;
27223;SDS011;14965;50.660;13.226;2024-02-04T07:47:50;1.40;;;1.02;;
27223;SDS011;14965;50.660;13.226;2024-02-04T07:50:17;1.08;;;0.90;;
27223;SDS011;14965;50.660;13.226;2024-02-04T07:52:43;0.93;;;0.80;;
27223;SDS011;14965;50.660;13.226;2024-02-04T07:55:09;1.63;;;1.08;;
27223;SDS011;14965;50.660;13.226;2024-02-04T07:57:35;0.90;;;0.80;;
27223;SDS011;14965;50.660;13.226;2024-02-04T08:00:01;3.25;;;1.00;;
27223;SDS011;14965;50.660;13.226;2024-02-04T08:02:29;1.77;;;0.90;;
27223;SDS011;14965;50.660;13.226;2024-02-04T08:04:55;1.23;;;1.00;;
27223;SDS011;14965;50.660;13.226;2024-02-04T08:07:22;1.27;;;1.00;;
27223;SDS011;14965;50.660;13.226;2024-02-04T08:09:48;1.77;;;1.00;;
27223;SDS011;14965;50.660;13.226;2024-02-04T08:12:14;13.40;;;6.95;;
27223;SDS011;14965;50.660;13.226;2024-02-04T08:14:40;3.40;;;2.20;;
27223;SDS011;14965;50.660;13.226;2024-02-04T08:17:06;1.65;;;1.25;;
27223;SDS011;14965;50.660;13.226;2024-02-04T08:19:32;1.90;;;1.70;;
27223;SDS011;14965;50.660;13.226;2024-02-04T08:21:58;1.67;;;1.20;;
27223;SDS011;14965;50.660;13.226;2024-02-04T08:24:25;2.53;;;2.00;;
27223;SDS011;14965;50.660;13.226;2024-02-04T08:26:51;2.05;;;1.48;;
27223;SDS011;14965;50.660;13.226;2024-02-04T08:29:17;1.92;;;1.50;;
27223;SDS011;14965;50.660;13.226;2024-02-04T08:31:43;2.17;;;0.80;;
27223;SDS011;14965;50.660;13.226;2024-02-04T08:34:09;2.75;;;1.70;;
27223;SDS011;14965;50.660;13.226;2024-02-04T08:36:35;3.20;;;2.47;;
27223;SDS011;14965;50.660;13.226;2024-02-04T08:39:00;4.45;;;3.60;;
27223;SDS011;14965;50.660;13.226;2024-02-04T08:41:28;1.85;;;1.48;;
27223;SDS011;14965;50.660;13.226;2024-02-04T08:43:54;1.77;;;1.13;;
27223;SDS011;14965;50.660;13.226;2024-02-04T08:46:19;2.13;;;1.60;;
27223;SDS011;14965;50.660;13.226;2024-02-04T08:48:45;1.83;;;1.48;;
27223;SDS011;14965;50.660;13.226;2024-02-04T08:51:11;7.95;;;5.03;;
27223;SDS011;14965;50.660;13.226;2024-02-04T08:53:38;1.55;;;1.25;;
27223;SDS011;14965;50.660;13.226;2024-02-04T08:56:05;4.75;;;3.85;;
27223;SDS011;14965;50.660;13.226;2024-02-04T08:58:33;1.30;;;1.15;;
27223;SDS011;14965;50.660;13.226;2024-02-04T09:00:59;1.35;;;1.10;;
27223;SDS011;14965;50.660;13.226;2024-02-04T09:03:25;2.83;;;1.88;;
27223;SDS011;14965;50.660;13.226;2024-02-04T09:05:51;3.05;;;1.40;;
27223;SDS011;14965;50.660;13.226;2024-02-04T09:08:17;2.30;;;1.08;;
27223;SDS011;14965;50.660;13.226;2024-02-04T09:10:43;0.82;;;0.82;;
27223;SDS011;14965;50.660;13.226;2024-02-04T09:13:09;1.55;;;1.10;;
27223;SDS011;14965;50.660;13.226;2024-02-04T09:15:36;1.10;;;1.00;;
27223;SDS011;14965;50.660;13.226;2024-02-04T09:18:02;1.30;;;1.10;;
27223;SDS011;14965;50.660;13.226;2024-02-04T09:20:29;1.95;;;1.30;;
27223;SDS011;14965;50.660;13.226;2024-02-04T09:22:55;2.35;;;1.90;;
27223;SDS011;14965;50.660;13.226;2024-02-04T09:25:21;1.70;;;1.40;;
27223;SDS011;14965;50.660;13.226;2024-02-04T09:27:47;2.17;;;1.48;;
27223;SDS011;14965;50.660;13.226;2024-02-04T09:30:13;3.22;;;1.60;;
27223;SDS011;14965;50.660;13.226;2024-02-04T09:32:40;3.38;;;1.70;;
27223;SDS011;14965;50.660;13.226;2024-02-04T09:35:07;2.03;;;1.70;;
27223;SDS011;14965;50.660;13.226;2024-02-04T09:37:33;2.00;;;1.80;;
27223;SDS011;14965;50.660;13.226;2024-02-04T09:39:59;2.40;;;1.90;;
27223;SDS011;14965;50.660;13.226;2024-02-04T09:42:25;3.40;;;2.40;;
27223;SDS011;14965;50.660;13.226;2024-02-04T09:44:51;2.67;;;1.73;;
27223;SDS011;14965;50.660;13.226;2024-02-04T09:47:17;2.88;;;2.05;;
27223;SDS011;14965;50.660;13.226;2024-02-04T09:49:45;2.53;;;1.88;;
27223;SDS011;14965;50.660;13.226;2024-02-04T09:52:12;3.30;;;2.08;;
27223;SDS011;14965;50.660;13.226;2024-02-04T09:54:43;2.67;;;2.05;;
27223;SDS011;14965;50.660;13.226;2024-02-04T09:57:13;2.88;;;2.28;;
27223;SDS011;14965;50.660;13.226;2024-02-04T09:59:39;2.83;;;1.92;;
27223;SDS011;14965;50.660;13.226;2024-02-04T10:02:05;5.13;;;2.60;;
27223;SDS011;14965;50.660;13.226;2024-02-04T10:04:32;2.60;;;2.10;;
27223;SDS011;14965;50.660;13.226;2024-02-04T10:07:00;2.83;;;2.25;;
27223;SDS011;14965;50.660;13.226;2024-02-04T10:09:27;4.05;;;2.00;;
27223;SDS011;14965;50.660;13.226;2024-02-04T10:11:53;3.65;;;2.85;;
27223;SDS011;14965;50.660;13.226;2024-02-04T10:14:19;4.30;;;3.10;;
27223;SDS011;14965;50.660;13.226;2024-02-04T10:16:45;3.67;;;2.60;;
27223;SDS011;14965;50.660;13.226;2024-02-04T10:19:11;2.95;;;2.00;;
27223;SDS011;14965;50.660;13.226;2024-02-04T10:21:37;2.03;;;1.70;;
27223;SDS011;14965;50.660;13.226;2024-02-04T10:24:05;5.53;;;3.25;;
27223;SDS011;14965;50.660;13.226;2024-02-04T10:26:32;4.20;;;3.45;;
27223;SDS011;14965;50.660;13.226;2024-02-04T10:28:58;1.83;;;1.50;;
27223;SDS011;14965;50.660;13.226;2024-02-04T10:31:24;1.50;;;1.23;;
27223;SDS011;14965;50.660;13.226;2024-02-04T10:33:51;1.55;;;1.42;;
27223;SDS011;14965;50.660;13.226;2024-02-04T10:36:17;2.97;;;1.90;;
27223;SDS011;14965;50.660;13.226;2024-02-04T10:38:43;1.45;;;1.35;;
27223;SDS011;14965;50.660;13.226;2024-02-04T10:41:11;3.95;;;1.90;;
27223;SDS011;14965;50.660;13.226;2024-02-04T10:43:41;1.70;;;1.52;;
27223;SDS011;14965;50.660;13.226;2024-02-04T10:46:09;4.53;;;2.07;;
27223;SDS011;14965;50.660;13.226;2024-02-04T10:48:43;2.63;;;1.92;;
27223;SDS011;14965;50.660;13.226;2024-02-04T10:51:14;3.22;;;1.98;;
27223;SDS011;14965;50.660;13.226;2024-02-04T10:53:41;2.70;;;2.08;;
27223;SDS011;14965;50.660;13.226;2024-02-04T10:56:08;2.85;;;2.10;;
27223;SDS011;14965;50.660;13.226;2024-02-04T10:58:47;1.70;;;1.60;;
27223;SDS011;14965;50.660;13.226;2024-02-04T11:01:14;2.08;;;1.88;;
27223;SDS011;14965;50.660;13.226;2024-02-04T11:03:40;2.85;;;1.90;;
27223;SDS011;14965;50.660;13.226;2024-02-04T11:06:07;2.10;;;1.90;;
27223;SDS011;14965;50.660;13.226;2024-02-04T11:08:35;3.47;;;2.50;;
27223;SDS011;14965;50.660;13.226;2024-02-04T11:11:03;5.50;;;2.20;;
27223;SDS011;14965;50.660;13.226;2024-02-04T11:13:30;4.53;;;3.22;;
27223;SDS011;14965;50.660;13.226;2024-02-04T11:15:58;4.35;;;2.78;;
27223;SDS011;14965;50.660;13.226;2024-02-04T11:18:39;6.00;;;4.10;;
27223;SDS011;14965;50.660;13.226;2024-02-04T11:24:41;6.35;;;4.00;;
27223;SDS011;14965;50.660;13.226;2024-02-04T11:27:35;3.47;;;2.47;;
27223;SDS011;14965;50.660;13.226;2024-02-04T11:30:03;4.50;;;3.08;;
27223;SDS011;14965;50.660;13.226;2024-02-04T11:32:30;7.50;;;3.35;;
27223;SDS011;14965;50.660;13.226;2024-02-04T11:34:56;5.68;;;2.45;;
27223;SDS011;14965;50.660;13.226;2024-02-04T11:37:23;8.13;;;4.30;;
27223;SDS011;14965;50.660;13.226;2024-02-04T11:39:49;3.25;;;1.88;;
27223;SDS011;14965;50.660;13.226;2024-02-04T11:42:17;3.20;;;2.15;;
27223;SDS011;14965;50.660;13.226;2024-02-04T11:44:43;3.10;;;2.00;;
27223;SDS011;14965;50.660;13.226;2024-02-04T11:47:11;6.05;;;3.95;;
27223;SDS011;14965;50.660;13.226;2024-02-04T11:49:37;2.15;;;1.90;;
27223;SDS011;14965;50.660;13.226;2024-02-04T11:52:04;2.63;;;2.00;;
27223;SDS011;14965;50.660;13.226;2024-02-04T11:54:30;2.75;;;1.55;;
27223;SDS011;14965;50.660;13.226;2024-02-04T11:56:56;1.80;;;1.60;;
27223;SDS011;14965;50.660;13.226;2024-02-04T11:59:24;1.70;;;1.60;;
27223;SDS011;14965;50.660;13.226;2024-02-04T12:01:53;1.98;;;1.65;;
27223;SDS011;14965;50.660;13.226;2024-02-04T12:04:21;2.92;;;1.80;;
27223;SDS011;14965;50.660;13.226;2024-02-04T12:06:48;2.95;;;1.40;;
27223;SDS011;14965;50.660;13.226;2024-02-04T12:09:16;3.05;;;1.40;;
27223;SDS011;14965;50.660;13.226;2024-02-04T12:11:43;2.08;;;1.50;;
27223;SDS011;14965;50.660;13.226;2024-02-04T12:14:09;1.75;;;1.50;;
27223;SDS011;14965;50.660;13.226;2024-02-04T12:16:36;2.33;;;1.23;;
27223;SDS011;14965;50.660;13.226;2024-02-04T12:19:03;2.38;;;1.30;;
27223;SDS011;14965;50.660;13.226;2024-02-04T12:21:30;1.60;;;1.10;;
27223;SDS011;14965;50.660;13.226;2024-02-04T12:23:56;2.17;;;1.20;;
27223;SDS011;14965;50.660;13.226;2024-02-04T12:26:23;3.75;;;1.38;;
27223;SDS011;14965;50.660;13.226;2024-02-04T12:28:50;1.80;;;1.10;;
27223;SDS011;14965;50.660;13.226;2024-02-04T12:31:16;2.50;;;1.02;;
27223;SDS011;14965;50.660;13.226;2024-02-04T12:33:43;1.52;;;0.90;;
27223;SDS011;14965;50.660;13.226;2024-02-04T12:36:15;2.65;;;1.20;;
27223;SDS011;14965;50.660;13.226;2024-02-04T12:38:42;1.80;;;1.17;;
27223;SDS011;14965;50.660;13.226;2024-02-04T12:41:17;1.10;;;1.00;;
27223;SDS011;14965;50.660;13.226;2024-02-04T12:43:47;1.25;;;0.90;;
27223;SDS011;14965;50.660;13.226;2024-02-04T12:46:15;1.10;;;1.00;;
27223;SDS011;14965;50.660;13.226;2024-02-04T12:48:41;1.00;;;0.90;;
27223;SDS011;14965;50.660;13.226;2024-02-04T12:51:07;3.08;;;1.30;;
27223;SDS011;14965;50.660;13.226;2024-02-04T12:53:33;2.45;;;1.10;;
27223;SDS011;14965;50.660;13.226;2024-02-04T12:56:00;1.65;;;1.05;;
27223;SDS011;14965;50.660;13.226;2024-02-04T12:58:26;0.80;;;0.80;;
27223;SDS011;14965;50.660;13.226;2024-02-04T13:00:59;3.25;;;1.73;;
27223;SDS011;14965;50.660;13.226;2024-02-04T13:03:25;3.33;;;2.20;;
27223;SDS011;14965;50.660;13.226;2024-02-04T13:05:51;1.75;;;1.50;;
27223;SDS011;14965;50.660;13.226;2024-02-04T13:08:23;2.13;;;1.40;;
27223;SDS011;14965;50.660;13.226;2024-02-04T13:10:53;1.20;;;1.08;;
27223;SDS011;14965;50.660;13.226;2024-02-04T13:13:21;1.08;;;0.90;;
27223;SDS011;14965;50.660;13.226;2024-02-04T13:15:47;3.13;;;1.00;;
27223;SDS011;14965;50.660;13.226;2024-02-04T13:18:13;1.02;;;0.75;;
27223;SDS011;14965;50.660;13.226;2024-02-04T13:20:39;1.67;;;0.90;;
27223;SDS011;14965;50.660;13.226;2024-02-04T13:23:05;1.30;;;1.08;;
27223;SDS011;14965;50.660;13.226;2024-02-04T13:25:31;1.85;;;1.20;;
27223;SDS011;14965;50.660;13.226;2024-02-04T13:27:57;7.10;;;3.55;;
27223;SDS011;14965;50.660;13.226;2024-02-04T13:30:25;2.45;;;1.55;;
27223;SDS011;14965;50.660;13.226;2024-02-04T13:32:51;1.45;;;1.23;;
27223;SDS011;14965;50.660;13.226;2024-02-04T13:35:17;1.77;;;1.30;;
27223;SDS011;14965;50.660;13.226;2024-02-04T13:37:44;2.13;;;1.55;;
27223;SDS011;14965;50.660;13.226;2024-02-04T13:40:11;1.05;;;0.95;;
27223;SDS011;14965;50.660;13.226;2024-02-04T13:42:39;12.30;;;8.50;;
27223;SDS011;14965;50.660;13.226;2024-02-04T13:45:05;2.33;;;2.13;;
27223;SDS011;14965;50.660;13.226;2024-02-04T13:47:33;3.70;;;3.40;;
27223;SDS011;14965;50.660;13.226;2024-02-04T13:49:59;1.70;;;1.60;;
27223;SDS011;14965;50.660;13.226;2024-02-04T13:52:26;0.77;;;0.77;;
27223;SDS011;14965;50.660;13.226;2024-02-04T13:54:52;1.23;;;0.80;;
27223;SDS011;14965;50.660;13.226;2024-02-04T13:57:18;0.80;;;0.80;;
27223;SDS011;14965;50.660;13.226;2024-02-04T13:59:44;1.17;;;1.08;;
27223;SDS011;14965;50.660;13.226;2024-02-04T14:02:10;2.00;;;1.50;;
27223;SDS011;14965;50.660;13.226;2024-02-04T14:04:37;1.10;;;0.93;;
27223;SDS011;14965;50.660;13.226;2024-02-04T14:07:03;5.22;;;3.10;;
27223;SDS011;14965;50.660;13.226;2024-02-04T14:09:29;3.55;;;2.20;;
27223;SDS011;14965;50.660;13.226;2024-02-04T14:11:55;1.50;;;1.30;;
27223;SDS011;14965;50.660;13.226;2024-02-04T14:14:22;2.58;;;2.38;;
27223;SDS011;14965;50.660;13.226;2024-02-04T14:16:48;4.82;;;2.78;;
27223;SDS011;14965;50.660;13.226;2024-02-04T14:19:14;2.28;;;1.52;;
27223;SDS011;14965;50.660;13.226;2024-02-04T14:21:42;3.58;;;1.40;;
27223;SDS011;14965;50.660;13.226;2024-02-04T14:24:08;4.90;;;1.90;;
27223;SDS011;14965;50.660;13.226;2024-02-04T14:26:34;1.77;;;1.10;;
27223;SDS011;14965;50.660;13.226;2024-02-04T14:29:00;1.90;;;1.30;;
27223;SDS011;14965;50.660;13.226;2024-02-04T14:31:26;1.00;;;0.90;;
27223;SDS011;14965;50.660;13.226;2024-02-04T14:33:52;1.10;;;1.00;;